PWSweather.com
Personal Weather Stations
Station Observations
KTXROWLE6
Ravens Nest, Rowlett, TX 75089

Ravens NestRowlett, TX 75089

Lat: 32.93105, Lon: -96.57368

Elevation: 556

Station Type: Davis Vantage Pro2 6152

http://rowlett.ws

High Low Average
Temperature 93.4°F34.1°C 76.5°F24.7°C 85.2°F29.6°C
Dew Point 69.9°F21.1°C 63.9°F17.7°C 67.2°F19.6°C
Winds 8.7 mph 14.0 kmh 0.7 mph 1.1 kmh 5.0 mph SSE8.0 kmh SSE
Wind Gusts 18.0 mph29.0 kmh 3.0 mph4.8 kmh 10.0 mph16.1 kmh
Humidity 75% 39% 56%
Pressure 30.08 in1018.6 mb 29.93 in1013.5 mb -
Precipitation 0.00 in0.0 mm - -
Hour Temp Dew Point Humidity Winds Wind Gusts Pressure Precip Precip Rate Daily Precip Total
12:00 AM 81.9°F27.7°C 65.1°F18.4°C 57% 2.3 mph SE3.7 kmh SE 5.0 mph8.0 kmh 30.07 in1018.3 mb 0.00 in0.0 mm 0.00 in0.0 mm 0.00 in0.0 mm
12:05 AM 81.7°F27.6°C 65.0°F18.3°C 57% 2.3 mph SSE3.7 kmh SSE 6.0 mph9.7 kmh 30.07 in1018.3 mb 0.00 in0.0 mm 0.00 in0.0 mm 0.00 in0.0 mm
12:10 AM 81.6°F27.6°C 64.9°F18.3°C 57% 2.4 mph SE3.9 kmh SE 6.0 mph9.7 kmh 30.07 in1018.3 mb 0.00 in0.0 mm 0.00 in0.0 mm 0.00 in0.0 mm
12:15 AM 81.3°F27.4°C 65.1°F18.4°C 58% 1.5 mph SSE2.4 kmh SSE 5.0 mph8.0 kmh 30.07 in1018.3 mb 0.00 in0.0 mm 0.00 in0.0 mm 0.00 in0.0 mm
12:20 AM 81.1°F27.3°C 64.9°F18.3°C 58% 1.0 mph SSE1.6 kmh SSE 3.0 mph4.8 kmh 30.06 in1017.9 mb 0.00 in0.0 mm 0.00 in0.0 mm 0.00 in0.0 mm
12:25 AM 81.0°F27.2°C 65.3°F18.5°C 59% 1.1 mph SSE1.8 kmh SSE 3.0 mph4.8 kmh 30.06 in1017.9 mb 0.00 in0.0 mm 0.00 in0.0 mm 0.00 in0.0 mm
12:30 AM 80.9°F27.2°C 65.2°F18.4°C 59% 0.9 mph SSE1.4 kmh SSE 3.0 mph4.8 kmh 30.06 in1017.9 mb 0.00 in0.0 mm 0.00 in0.0 mm 0.00 in0.0 mm
12:35 AM 80.7°F27.1°C 65.0°F18.3°C 59% 0.7 mph SSE1.1 kmh SSE 3.0 mph4.8 kmh 30.06 in1017.9 mb 0.00 in0.0 mm 0.00 in0.0 mm 0.00 in0.0 mm
12:40 AM 80.6°F27.0°C 64.9°F18.3°C 59% 1.0 mph SSE1.6 kmh SSE 4.0 mph6.4 kmh 30.06 in1017.9 mb 0.00 in0.0 mm 0.00 in0.0 mm 0.00 in0.0 mm
12:45 AM 80.4°F26.9°C 65.2°F18.4°C 60% 0.7 mph SSE1.1 kmh SSE 4.0 mph6.4 kmh 30.06 in1017.9 mb 0.00 in0.0 mm 0.00 in0.0 mm 0.00 in0.0 mm
12:50 AM 80.3°F26.8°C 65.1°F18.4°C 60% 1.0 mph SSE1.6 kmh SSE 3.0 mph4.8 kmh 30.06 in1017.9 mb 0.00 in0.0 mm 0.00 in0.0 mm 0.00 in0.0 mm
12:55 AM 80.3°F26.8°C 65.1°F18.4°C 60% 1.1 mph SSE1.8 kmh SSE 3.0 mph4.8 kmh 30.06 in1017.9 mb 0.00 in0.0 mm 0.00 in0.0 mm 0.00 in0.0 mm
01:00 AM 80.3°F26.8°C 65.6°F18.7°C 61% 1.2 mph SSE1.9 kmh SSE 3.0 mph4.8 kmh 30.06 in1017.9 mb 0.00 in0.0 mm 0.00 in0.0 mm 0.00 in0.0 mm
01:05 AM 80.3°F26.8°C 65.6°F18.7°C 61% 2.1 mph SE3.4 kmh SE 5.0 mph8.0 kmh 30.06 in1017.9 mb 0.00 in0.0 mm 0.00 in0.0 mm 0.00 in0.0 mm
01:10 AM 80.3°F26.8°C 65.6°F18.7°C 61% 2.5 mph SE4.0 kmh SE 6.0 mph9.7 kmh 30.05 in1017.6 mb 0.00 in0.0 mm 0.00 in0.0 mm 0.00 in0.0 mm
01:15 AM 80.4°F26.9°C 65.7°F18.7°C 61% 2.9 mph SE4.7 kmh SE 7.0 mph11.3 kmh 30.05 in1017.6 mb 0.00 in0.0 mm 0.00 in0.0 mm 0.00 in0.0 mm
01:20 AM 80.5°F26.9°C 65.8°F18.8°C 61% 3.5 mph SE5.6 kmh SE 7.0 mph11.3 kmh 30.05 in1017.6 mb 0.00 in0.0 mm 0.00 in0.0 mm 0.00 in0.0 mm
01:25 AM 80.7°F27.1°C 66.0°F18.9°C 61% 3.9 mph SE6.3 kmh SE 8.0 mph12.9 kmh 30.05 in1017.6 mb 0.00 in0.0 mm 0.00 in0.0 mm 0.00 in0.0 mm
01:30 AM 80.5°F26.9°C 65.8°F18.8°C 61% 3.4 mph SE5.5 kmh SE 8.0 mph12.9 kmh 30.05 in1017.6 mb 0.00 in0.0 mm 0.00 in0.0 mm 0.00 in0.0 mm
01:35 AM 80.4°F26.9°C 66.2°F19.0°C 62% 3.4 mph SE5.5 kmh SE 6.0 mph9.7 kmh 30.05 in1017.6 mb 0.00 in0.0 mm 0.00 in0.0 mm 0.00 in0.0 mm
01:40 AM 80.3°F26.8°C 66.1°F18.9°C 62% 3.6 mph SE5.8 kmh SE 7.0 mph11.3 kmh 30.05 in1017.6 mb 0.00 in0.0 mm 0.00 in0.0 mm 0.00 in0.0 mm
01:45 AM 80.1°F26.7°C 66.3°F19.1°C 63% 3.9 mph SSE6.3 kmh SSE 9.0 mph14.5 kmh 30.05 in1017.6 mb 0.00 in0.0 mm 0.00 in0.0 mm 0.00 in0.0 mm
01:50 AM 80.0°F26.7°C 66.2°F19.0°C 63% 4.2 mph SE6.8 kmh SE 9.0 mph14.5 kmh 30.05 in1017.6 mb 0.00 in0.0 mm 0.00 in0.0 mm 0.00 in0.0 mm
01:55 AM 79.9°F26.6°C 66.2°F19.0°C 63% 3.1 mph SE5.0 kmh SE 8.0 mph12.9 kmh 30.05 in1017.6 mb 0.00 in0.0 mm 0.00 in0.0 mm 0.00 in0.0 mm
02:00 AM 79.6°F26.4°C 66.3°F19.1°C 64% 2.1 mph SE3.4 kmh SE 7.0 mph11.3 kmh 30.04 in1017.3 mb 0.00 in0.0 mm 0.00 in0.0 mm 0.00 in0.0 mm
02:05 AM 79.5°F26.4°C 66.2°F19.0°C 64% 3.0 mph SSE4.8 kmh SSE 6.0 mph9.7 kmh 30.04 in1017.3 mb 0.00 in0.0 mm 0.00 in0.0 mm 0.00 in0.0 mm
02:10 AM 79.3°F26.3°C 66.5°F19.2°C 65% 2.2 mph SE3.5 kmh SE 6.0 mph9.7 kmh 30.05 in1017.6 mb 0.00 in0.0 mm 0.00 in0.0 mm 0.00 in0.0 mm
02:15 AM 79.2°F26.2°C 66.4°F19.1°C 65% 1.8 mph SSE2.9 kmh SSE 5.0 mph8.0 kmh 30.05 in1017.6 mb 0.00 in0.0 mm 0.00 in0.0 mm 0.00 in0.0 mm
02:20 AM 79.0°F26.1°C 66.2°F19.0°C 65% 1.6 mph SSE2.6 kmh SSE 4.0 mph6.4 kmh 30.05 in1017.6 mb 0.00 in0.0 mm 0.00 in0.0 mm 0.00 in0.0 mm
02:25 AM 78.9°F26.1°C 66.6°F19.2°C 66% 2.2 mph SSE3.5 kmh SSE 6.0 mph9.7 kmh 30.04 in1017.3 mb 0.00 in0.0 mm 0.00 in0.0 mm 0.00 in0.0 mm
02:30 AM 78.9°F26.1°C 66.6°F19.2°C 66% 3.1 mph SE5.0 kmh SE 6.0 mph9.7 kmh 30.04 in1017.3 mb 0.00 in0.0 mm 0.00 in0.0 mm 0.00 in0.0 mm
02:35 AM 78.8°F26.0°C 66.9°F19.4°C 67% 3.0 mph SSE4.8 kmh SSE 6.0 mph9.7 kmh 30.04 in1017.3 mb 0.00 in0.0 mm 0.00 in0.0 mm 0.00 in0.0 mm
02:40 AM 78.7°F25.9°C 66.8°F19.3°C 67% 2.5 mph SE4.0 kmh SE 6.0 mph9.7 kmh 30.04 in1017.3 mb 0.00 in0.0 mm 0.00 in0.0 mm 0.00 in0.0 mm
02:45 AM 78.6°F25.9°C 66.7°F19.3°C 67% 2.4 mph SSE3.9 kmh SSE 5.0 mph8.0 kmh 30.04 in1017.3 mb 0.00 in0.0 mm 0.00 in0.0 mm 0.00 in0.0 mm
02:50 AM 78.6°F25.9°C 67.1°F19.5°C 68% 3.6 mph SE5.8 kmh SE 8.0 mph12.9 kmh 30.04 in1017.3 mb 0.00 in0.0 mm 0.00 in0.0 mm 0.00 in0.0 mm
02:55 AM 78.5°F25.8°C 67.0°F19.4°C 68% 3.1 mph SE5.0 kmh SE 8.0 mph12.9 kmh 30.04 in1017.3 mb 0.00 in0.0 mm 0.00 in0.0 mm 0.00 in0.0 mm
03:00 AM 78.4°F25.8°C 67.4°F19.7°C 69% 2.6 mph SSE4.2 kmh SSE 6.0 mph9.7 kmh 30.04 in1017.3 mb 0.00 in0.0 mm 0.00 in0.0 mm 0.00 in0.0 mm
03:05 AM 78.2°F25.7°C 67.2°F19.6°C 69% 3.0 mph SSE4.8 kmh SSE 6.0 mph9.7 kmh 30.04 in1017.3 mb 0.00 in0.0 mm 0.00 in0.0 mm 0.00 in0.0 mm
03:10 AM 78.1°F25.6°C 67.1°F19.5°C 69% 2.0 mph SSE3.2 kmh SSE 6.0 mph9.7 kmh 30.04 in1017.3 mb 0.00 in0.0 mm 0.00 in0.0 mm 0.00 in0.0 mm
03:15 AM 78.1°F25.6°C 67.5°F19.7°C 70% 2.6 mph SSE4.2 kmh SSE 5.0 mph8.0 kmh 30.04 in1017.3 mb 0.00 in0.0 mm 0.00 in0.0 mm 0.00 in0.0 mm
03:20 AM 77.9°F25.5°C 67.3°F19.6°C 70% 2.7 mph SSE4.3 kmh SSE 5.0 mph8.0 kmh 30.04 in1017.3 mb 0.00 in0.0 mm 0.00 in0.0 mm 0.00 in0.0 mm
03:25 AM 77.9°F25.5°C 67.7°F19.8°C 71% 2.8 mph SSE4.5 kmh SSE 6.0 mph9.7 kmh 30.04 in1017.3 mb 0.00 in0.0 mm 0.00 in0.0 mm 0.00 in0.0 mm
03:30 AM 77.8°F25.4°C 67.6°F19.8°C 71% 2.8 mph SSE4.5 kmh SSE 6.0 mph9.7 kmh 30.04 in1017.3 mb 0.00 in0.0 mm 0.00 in0.0 mm 0.00 in0.0 mm
03:35 AM 77.6°F25.3°C 67.4°F19.7°C 71% 2.5 mph SSE4.0 kmh SSE 6.0 mph9.7 kmh 30.04 in1017.3 mb 0.00 in0.0 mm 0.00 in0.0 mm 0.00 in0.0 mm
03:40 AM 77.5°F25.3°C 67.7°F19.8°C 72% 2.3 mph SSE3.7 kmh SSE 5.0 mph8.0 kmh 30.04 in1017.3 mb 0.00 in0.0 mm 0.00 in0.0 mm 0.00 in0.0 mm
03:45 AM 77.5°F25.3°C 67.7°F19.8°C 72% 2.2 mph SSE3.5 kmh SSE 4.0 mph6.4 kmh 30.04 in1017.3 mb 0.00 in0.0 mm 0.00 in0.0 mm 0.00 in0.0 mm
03:50 AM 77.4°F25.2°C 67.6°F19.8°C 72% 2.8 mph SSE4.5 kmh SSE 5.0 mph8.0 kmh 30.04 in1017.3 mb 0.00 in0.0 mm 0.00 in0.0 mm 0.00 in0.0 mm
03:55 AM 77.4°F25.2°C 67.6°F19.8°C 72% 2.9 mph SSE4.7 kmh SSE 6.0 mph9.7 kmh 30.04 in1017.3 mb 0.00 in0.0 mm 0.00 in0.0 mm 0.00 in0.0 mm
04:00 AM 77.4°F25.2°C 68.0°F20.0°C 73% 3.3 mph SSE5.3 kmh SSE 7.0 mph11.3 kmh 30.04 in1017.3 mb 0.00 in0.0 mm 0.00 in0.0 mm 0.00 in0.0 mm
04:05 AM 77.4°F25.2°C 68.0°F20.0°C 73% 3.0 mph SSE4.8 kmh SSE 7.0 mph11.3 kmh 30.04 in1017.3 mb 0.00 in0.0 mm 0.00 in0.0 mm 0.00 in0.0 mm
04:10 AM 77.4°F25.2°C 68.0°F20.0°C 73% 2.6 mph SSE4.2 kmh SSE 5.0 mph8.0 kmh 30.04 in1017.3 mb 0.00 in0.0 mm 0.00 in0.0 mm 0.00 in0.0 mm
04:15 AM 77.4°F25.2°C 68.0°F20.0°C 73% 2.8 mph SSE4.5 kmh SSE 4.0 mph6.4 kmh 30.04 in1017.3 mb 0.00 in0.0 mm 0.00 in0.0 mm 0.00 in0.0 mm
04:20 AM 77.4°F25.2°C 68.0°F20.0°C 73% 2.9 mph SSE4.7 kmh SSE 7.0 mph11.3 kmh 30.04 in1017.3 mb 0.00 in0.0 mm 0.00 in0.0 mm 0.00 in0.0 mm
04:25 AM 77.4°F25.2°C 68.0°F20.0°C 73% 2.8 mph SSE4.5 kmh SSE 7.0 mph11.3 kmh 30.04 in1017.3 mb 0.00 in0.0 mm 0.00 in0.0 mm 0.00 in0.0 mm
04:30 AM 77.5°F25.3°C 68.1°F20.1°C 73% 3.1 mph SSE5.0 kmh SSE 7.0 mph11.3 kmh 30.04 in1017.3 mb 0.00 in0.0 mm 0.00 in0.0 mm 0.00 in0.0 mm
04:35 AM 77.5°F25.3°C 68.1°F20.1°C 73% 2.7 mph SSE4.3 kmh SSE 7.0 mph11.3 kmh 30.05 in1017.6 mb 0.00 in0.0 mm 0.00 in0.0 mm 0.00 in0.0 mm
04:40 AM 77.5°F25.3°C 68.1°F20.1°C 73% 3.1 mph SSE5.0 kmh SSE 7.0 mph11.3 kmh 30.05 in1017.6 mb 0.00 in0.0 mm 0.00 in0.0 mm 0.00 in0.0 mm
04:45 AM 77.5°F25.3°C 68.1°F20.1°C 73% 2.7 mph SSE4.3 kmh SSE 6.0 mph9.7 kmh 30.05 in1017.6 mb 0.00 in0.0 mm 0.00 in0.0 mm 0.00 in0.0 mm
04:50 AM 77.4°F25.2°C 68.0°F20.0°C 73% 2.8 mph SSE4.5 kmh SSE 6.0 mph9.7 kmh 30.05 in1017.6 mb 0.00 in0.0 mm 0.00 in0.0 mm 0.00 in0.0 mm
04:55 AM 77.3°F25.2°C 68.0°F20.0°C 73% 2.5 mph SSE4.0 kmh SSE 5.0 mph8.0 kmh 30.05 in1017.6 mb 0.00 in0.0 mm 0.00 in0.0 mm 0.00 in0.0 mm
05:00 AM 77.3°F25.2°C 68.3°F20.2°C 74% 3.2 mph SSE5.1 kmh SSE 6.0 mph9.7 kmh 30.05 in1017.6 mb 0.00 in0.0 mm 0.00 in0.0 mm 0.00 in0.0 mm
05:05 AM 77.2°F25.1°C 68.3°F20.2°C 74% 3.5 mph S5.6 kmh S 7.0 mph11.3 kmh 30.05 in1017.6 mb 0.00 in0.0 mm 0.00 in0.0 mm 0.00 in0.0 mm
05:10 AM 77.2°F25.1°C 68.3°F20.2°C 74% 3.1 mph SSE5.0 kmh SSE 7.0 mph11.3 kmh 30.04 in1017.3 mb 0.00 in0.0 mm 0.00 in0.0 mm 0.00 in0.0 mm
05:15 AM 77.1°F25.1°C 68.2°F20.1°C 74% 3.9 mph SSE6.3 kmh SSE 7.0 mph11.3 kmh 30.05 in1017.6 mb 0.00 in0.0 mm 0.00 in0.0 mm 0.00 in0.0 mm
05:20 AM 77.1°F25.1°C 68.2°F20.1°C 74% 2.7 mph SSE4.3 kmh SSE 6.0 mph9.7 kmh 30.05 in1017.6 mb 0.00 in0.0 mm 0.00 in0.0 mm 0.00 in0.0 mm
05:25 AM 77.0°F25.0°C 68.1°F20.1°C 74% 3.0 mph SSE4.8 kmh SSE 7.0 mph11.3 kmh 30.05 in1017.6 mb 0.00 in0.0 mm 0.00 in0.0 mm 0.00 in0.0 mm
05:30 AM 77.0°F25.0°C 68.1°F20.1°C 74% 4.2 mph SSE6.8 kmh SSE 7.0 mph11.3 kmh 30.05 in1017.6 mb 0.00 in0.0 mm 0.00 in0.0 mm 0.00 in0.0 mm
05:35 AM 76.9°F24.9°C 68.0°F20.0°C 74% 4.0 mph SSE6.4 kmh SSE 8.0 mph12.9 kmh 30.05 in1017.6 mb 0.00 in0.0 mm 0.00 in0.0 mm 0.00 in0.0 mm
05:40 AM 76.9°F24.9°C 68.0°F20.0°C 74% 3.9 mph S6.3 kmh S 8.0 mph12.9 kmh 30.05 in1017.6 mb 0.00 in0.0 mm 0.00 in0.0 mm 0.00 in0.0 mm
05:45 AM 76.8°F24.9°C 67.9°F19.9°C 74% 3.2 mph S5.1 kmh S 8.0 mph12.9 kmh 30.05 in1017.6 mb 0.00 in0.0 mm 0.00 in0.0 mm 0.00 in0.0 mm
05:50 AM 76.7°F24.8°C 67.8°F19.9°C 74% 3.7 mph SSE6.0 kmh SSE 8.0 mph12.9 kmh 30.05 in1017.6 mb 0.00 in0.0 mm 0.00 in0.0 mm 0.00 in0.0 mm
05:55 AM 76.6°F24.8°C 67.7°F19.8°C 74% 3.6 mph S5.8 kmh S 7.0 mph11.3 kmh 30.05 in1017.6 mb 0.00 in0.0 mm 0.00 in0.0 mm 0.00 in0.0 mm
06:00 AM 76.6°F24.8°C 67.7°F19.8°C 74% 3.6 mph SSE5.8 kmh SSE 9.0 mph14.5 kmh 30.06 in1017.9 mb 0.00 in0.0 mm 0.00 in0.0 mm 0.00 in0.0 mm
06:05 AM 76.6°F24.8°C 67.7°F19.8°C 74% 3.5 mph S5.6 kmh S 9.0 mph14.5 kmh 30.06 in1017.9 mb 0.00 in0.0 mm 0.00 in0.0 mm 0.00 in0.0 mm
06:10 AM 76.5°F24.7°C 67.6°F19.8°C 74% 3.1 mph S5.0 kmh S 8.0 mph12.9 kmh 30.06 in1017.9 mb 0.00 in0.0 mm 0.00 in0.0 mm 0.00 in0.0 mm
06:15 AM 76.5°F24.7°C 67.6°F19.8°C 74% 3.7 mph SSE6.0 kmh SSE 8.0 mph12.9 kmh 30.06 in1017.9 mb 0.00 in0.0 mm 0.00 in0.0 mm 0.00 in0.0 mm
06:20 AM 76.5°F24.7°C 68.0°F20.0°C 75% 2.2 mph S3.5 kmh S 8.0 mph12.9 kmh 30.06 in1017.9 mb 0.00 in0.0 mm 0.00 in0.0 mm 0.00 in0.0 mm
06:25 AM 76.6°F24.8°C 67.7°F19.8°C 74% 3.4 mph SSE5.5 kmh SSE 8.0 mph12.9 kmh 30.07 in1018.3 mb 0.00 in0.0 mm 0.00 in0.0 mm 0.00 in0.0 mm
06:30 AM 76.8°F24.9°C 67.9°F19.9°C 74% 2.7 mph S4.3 kmh S 8.0 mph12.9 kmh 30.07 in1018.3 mb 0.00 in0.0 mm 0.00 in0.0 mm 0.00 in0.0 mm
06:35 AM 77.0°F25.0°C 68.1°F20.1°C 74% 2.7 mph SSE4.3 kmh SSE 7.0 mph11.3 kmh 30.07 in1018.3 mb 0.00 in0.0 mm 0.00 in0.0 mm 0.00 in0.0 mm
06:40 AM 77.2°F25.1°C 67.9°F19.9°C 73% 2.3 mph S3.7 kmh S 7.0 mph11.3 kmh 30.07 in1018.3 mb 0.00 in0.0 mm 0.00 in0.0 mm 0.00 in0.0 mm
06:45 AM 77.4°F25.2°C 68.0°F20.0°C 73% 2.5 mph SSE4.0 kmh SSE 5.0 mph8.0 kmh 30.07 in1018.3 mb 0.00 in0.0 mm 0.00 in0.0 mm 0.00 in0.0 mm
06:50 AM 77.6°F25.3°C 68.2°F20.1°C 73% 3.0 mph S4.8 kmh S 6.0 mph9.7 kmh 30.07 in1018.3 mb 0.00 in0.0 mm 0.00 in0.0 mm 0.00 in0.0 mm
06:55 AM 77.9°F25.5°C 68.5°F20.3°C 73% 2.0 mph S3.2 kmh S 7.0 mph11.3 kmh 30.07 in1018.3 mb 0.00 in0.0 mm 0.00 in0.0 mm 0.00 in0.0 mm
07:00 AM 78.2°F25.7°C 68.4°F20.2°C 72% 2.5 mph S4.0 kmh S 7.0 mph11.3 kmh 30.08 in1018.6 mb 0.00 in0.0 mm 0.00 in0.0 mm 0.00 in0.0 mm
07:05 AM 78.3°F25.7°C 68.1°F20.1°C 71% 3.3 mph S5.3 kmh S 8.0 mph12.9 kmh 30.07 in1018.3 mb 0.00 in0.0 mm 0.00 in0.0 mm 0.00 in0.0 mm
07:10 AM 78.5°F25.8°C 68.3°F20.2°C 71% 3.0 mph SSW4.8 kmh SSW 8.0 mph12.9 kmh 30.08 in1018.6 mb 0.00 in0.0 mm 0.00 in0.0 mm 0.00 in0.0 mm
07:15 AM 78.8°F26.0°C 68.2°F20.1°C 70% 3.5 mph S5.6 kmh S 7.0 mph11.3 kmh 30.08 in1018.6 mb 0.00 in0.0 mm 0.00 in0.0 mm 0.00 in0.0 mm
07:20 AM 78.9°F26.1°C 68.3°F20.2°C 70% 3.8 mph SSW6.1 kmh SSW 11.0 mph17.7 kmh 30.08 in1018.6 mb 0.00 in0.0 mm 0.00 in0.0 mm 0.00 in0.0 mm
07:25 AM 79.2°F26.2°C 68.6°F20.3°C 70% 3.0 mph S4.8 kmh S 11.0 mph17.7 kmh 30.08 in1018.6 mb 0.00 in0.0 mm 0.00 in0.0 mm 0.00 in0.0 mm
07:30 AM 79.3°F26.3°C 68.2°F20.1°C 69% 3.3 mph S5.3 kmh S 8.0 mph12.9 kmh 30.08 in1018.6 mb 0.00 in0.0 mm 0.00 in0.0 mm 0.00 in0.0 mm
07:35 AM 79.4°F26.3°C 68.3°F20.2°C 69% 3.9 mph S6.3 kmh S 9.0 mph14.5 kmh 30.08 in1018.6 mb 0.00 in0.0 mm 0.00 in0.0 mm 0.00 in0.0 mm
07:40 AM 79.8°F26.6°C 68.7°F20.4°C 69% 3.8 mph SSE6.1 kmh SSE 9.0 mph14.5 kmh 30.08 in1018.6 mb 0.00 in0.0 mm 0.00 in0.0 mm 0.00 in0.0 mm
07:45 AM 80.1°F26.7°C 69.0°F20.6°C 69% 3.3 mph S5.3 kmh S 9.0 mph14.5 kmh 30.08 in1018.6 mb 0.00 in0.0 mm 0.00 in0.0 mm 0.00 in0.0 mm
07:50 AM 80.5°F26.9°C 68.9°F20.5°C 68% 2.8 mph S4.5 kmh S 7.0 mph11.3 kmh 30.08 in1018.6 mb 0.00 in0.0 mm 0.00 in0.0 mm 0.00 in0.0 mm
07:55 AM 80.5°F26.9°C 68.9°F20.5°C 68% 3.1 mph S5.0 kmh S 7.0 mph11.3 kmh 30.08 in1018.6 mb 0.00 in0.0 mm 0.00 in0.0 mm 0.00 in0.0 mm
08:00 AM 80.6°F27.0°C 68.6°F20.3°C 67% 3.7 mph S6.0 kmh S 7.0 mph11.3 kmh 30.08 in1018.6 mb 0.00 in0.0 mm 0.00 in0.0 mm 0.00 in0.0 mm
08:05 AM 81.1°F27.3°C 69.1°F20.6°C 67% 2.7 mph S4.3 kmh S 7.0 mph11.3 kmh 30.08 in1018.6 mb 0.00 in0.0 mm 0.00 in0.0 mm 0.00 in0.0 mm
08:10 AM 81.3°F27.4°C 69.3°F20.7°C 67% 3.4 mph SSW5.5 kmh SSW 8.0 mph12.9 kmh 30.08 in1018.6 mb 0.00 in0.0 mm 0.00 in0.0 mm 0.00 in0.0 mm
08:15 AM 81.5°F27.5°C 68.6°F20.3°C 65% 3.5 mph SSW5.6 kmh SSW 8.0 mph12.9 kmh 30.08 in1018.6 mb 0.00 in0.0 mm 0.00 in0.0 mm 0.00 in0.0 mm
08:20 AM 81.7°F27.6°C 68.3°F20.2°C 64% 3.7 mph SW6.0 kmh SW 7.0 mph11.3 kmh 30.08 in1018.6 mb 0.00 in0.0 mm 0.00 in0.0 mm 0.00 in0.0 mm
08:25 AM 82.0°F27.8°C 68.6°F20.3°C 64% 3.9 mph S6.3 kmh S 9.0 mph14.5 kmh 30.08 in1018.6 mb 0.00 in0.0 mm 0.00 in0.0 mm 0.00 in0.0 mm
08:30 AM 82.0°F27.8°C 68.6°F20.3°C 64% 3.3 mph S5.3 kmh S 9.0 mph14.5 kmh 30.08 in1018.6 mb 0.00 in0.0 mm 0.00 in0.0 mm 0.00 in0.0 mm
08:35 AM 82.3°F27.9°C 68.4°F20.2°C 63% 3.6 mph S5.8 kmh S 9.0 mph14.5 kmh 30.08 in1018.6 mb 0.00 in0.0 mm 0.00 in0.0 mm 0.00 in0.0 mm
08:40 AM 82.4°F28.0°C 68.0°F20.0°C 62% 4.1 mph SW6.6 kmh SW 9.0 mph14.5 kmh 30.08 in1018.6 mb 0.00 in0.0 mm 0.00 in0.0 mm 0.00 in0.0 mm
08:45 AM 82.8°F28.2°C 68.9°F20.5°C 63% 3.7 mph S6.0 kmh S 7.0 mph11.3 kmh 30.08 in1018.6 mb 0.00 in0.0 mm 0.00 in0.0 mm 0.00 in0.0 mm
08:50 AM 83.2°F28.4°C 68.8°F20.4°C 62% 3.9 mph SSW6.3 kmh SSW 10.0 mph16.1 kmh 30.08 in1018.6 mb 0.00 in0.0 mm 0.00 in0.0 mm 0.00 in0.0 mm
08:55 AM 83.1°F28.4°C 69.2°F20.7°C 63% 3.5 mph SW5.6 kmh SW 10.0 mph16.1 kmh 30.08 in1018.6 mb 0.00 in0.0 mm 0.00 in0.0 mm 0.00 in0.0 mm
09:00 AM 83.6°F28.7°C 69.2°F20.7°C 62% 3.1 mph SW5.0 kmh SW 8.0 mph12.9 kmh 30.08 in1018.6 mb 0.00 in0.0 mm 0.00 in0.0 mm 0.00 in0.0 mm
09:05 AM 83.9°F28.8°C 69.0°F20.6°C 61% 3.2 mph SW5.1 kmh SW 7.0 mph11.3 kmh 30.08 in1018.6 mb 0.00 in0.0 mm 0.00 in0.0 mm 0.00 in0.0 mm
09:10 AM 84.2°F29.0°C 68.8°F20.4°C 60% 2.9 mph S4.7 kmh S 7.0 mph11.3 kmh 30.08 in1018.6 mb 0.00 in0.0 mm 0.00 in0.0 mm 0.00 in0.0 mm
09:15 AM 84.4°F29.1°C 69.0°F20.6°C 60% 3.4 mph SSE5.5 kmh SSE 7.0 mph11.3 kmh 30.08 in1018.6 mb 0.00 in0.0 mm 0.00 in0.0 mm 0.00 in0.0 mm
09:20 AM 84.6°F29.2°C 68.7°F20.4°C 59% 3.9 mph SSW6.3 kmh SSW 9.0 mph14.5 kmh 30.08 in1018.6 mb 0.00 in0.0 mm 0.00 in0.0 mm 0.00 in0.0 mm
09:25 AM 84.9°F29.4°C 69.9°F21.1°C 61% 3.3 mph SW5.3 kmh SW 9.0 mph14.5 kmh 30.08 in1018.6 mb 0.00 in0.0 mm 0.00 in0.0 mm 0.00 in0.0 mm
09:30 AM 85.2°F29.6°C 68.2°F20.1°C 57% 4.2 mph SSW6.8 kmh SSW 11.0 mph17.7 kmh 30.08 in1018.6 mb 0.00 in0.0 mm 0.00 in0.0 mm 0.00 in0.0 mm
09:35 AM 85.6°F29.8°C 68.6°F20.3°C 57% 2.6 mph SW4.2 kmh SW 11.0 mph17.7 kmh 30.08 in1018.6 mb 0.00 in0.0 mm 0.00 in0.0 mm 0.00 in0.0 mm
09:40 AM 85.7°F29.8°C 67.6°F19.8°C 55% 4.8 mph SW7.7 kmh SW 10.0 mph16.1 kmh 30.08 in1018.6 mb 0.00 in0.0 mm 0.00 in0.0 mm 0.00 in0.0 mm
09:45 AM 85.9°F29.9°C 68.4°F20.2°C 56% 4.6 mph SSW7.4 kmh SSW 10.0 mph16.1 kmh 30.07 in1018.3 mb 0.00 in0.0 mm 0.00 in0.0 mm 0.00 in0.0 mm
09:50 AM 86.3°F30.2°C 68.2°F20.1°C 55% 3.8 mph SSW6.1 kmh SSW 9.0 mph14.5 kmh 30.07 in1018.3 mb 0.00 in0.0 mm 0.00 in0.0 mm 0.00 in0.0 mm
09:55 AM 86.6°F30.3°C 68.5°F20.3°C 55% 3.8 mph SW6.1 kmh SW 9.0 mph14.5 kmh 30.07 in1018.3 mb 0.00 in0.0 mm 0.00 in0.0 mm 0.00 in0.0 mm
10:00 AM 86.7°F30.4°C 68.6°F20.3°C 55% 4.1 mph SSE6.6 kmh SSE 9.0 mph14.5 kmh 30.07 in1018.3 mb 0.00 in0.0 mm 0.00 in0.0 mm 0.00 in0.0 mm
10:05 AM 87.4°F30.8°C 68.7°F20.4°C 54% 3.7 mph S6.0 kmh S 8.0 mph12.9 kmh 30.08 in1018.6 mb 0.00 in0.0 mm 0.00 in0.0 mm 0.00 in0.0 mm
10:10 AM 87.5°F30.8°C 68.2°F20.1°C 53% 3.4 mph S5.5 kmh S 8.0 mph12.9 kmh 30.07 in1018.3 mb 0.00 in0.0 mm 0.00 in0.0 mm 0.00 in0.0 mm
10:15 AM 87.7°F30.9°C 67.9°F19.9°C 52% 3.4 mph S5.5 kmh S 8.0 mph12.9 kmh 30.07 in1018.3 mb 0.00 in0.0 mm 0.00 in0.0 mm 0.00 in0.0 mm
10:20 AM 87.5°F30.8°C 67.7°F19.8°C 52% 5.1 mph SSW8.2 kmh SSW 11.0 mph17.7 kmh 30.07 in1018.3 mb 0.00 in0.0 mm 0.00 in0.0 mm 0.00 in0.0 mm
10:25 AM 87.7°F30.9°C 67.9°F19.9°C 52% 4.8 mph S7.7 kmh S 11.0 mph17.7 kmh 30.08 in1018.6 mb 0.00 in0.0 mm 0.00 in0.0 mm 0.00 in0.0 mm
10:30 AM 88.3°F31.3°C 67.8°F19.9°C 51% 4.8 mph SSE7.7 kmh SSE 10.0 mph16.1 kmh 30.08 in1018.6 mb 0.00 in0.0 mm 0.00 in0.0 mm 0.00 in0.0 mm
10:35 AM 88.2°F31.2°C 67.7°F19.8°C 51% 4.4 mph SSW7.1 kmh SSW 10.0 mph16.1 kmh 30.07 in1018.3 mb 0.00 in0.0 mm 0.00 in0.0 mm 0.00 in0.0 mm
10:40 AM 88.2°F31.2°C 67.2°F19.6°C 50% 5.2 mph SSW8.4 kmh SSW 12.0 mph19.3 kmh 30.07 in1018.3 mb 0.00 in0.0 mm 0.00 in0.0 mm 0.00 in0.0 mm
10:45 AM 88.4°F31.3°C 67.9°F19.9°C 51% 4.2 mph S6.8 kmh S 12.0 mph19.3 kmh 30.07 in1018.3 mb 0.00 in0.0 mm 0.00 in0.0 mm 0.00 in0.0 mm
10:50 AM 88.5°F31.4°C 68.6°F20.3°C 52% 4.2 mph SSE6.8 kmh SSE 12.0 mph19.3 kmh 30.07 in1018.3 mb 0.00 in0.0 mm 0.00 in0.0 mm 0.00 in0.0 mm
10:55 AM 89.1°F31.7°C 69.1°F20.6°C 52% 4.7 mph S7.6 kmh S 12.0 mph19.3 kmh 30.07 in1018.3 mb 0.00 in0.0 mm 0.00 in0.0 mm 0.00 in0.0 mm
11:00 AM 89.9°F32.2°C 68.7°F20.4°C 50% 4.0 mph SSW6.4 kmh SSW 11.0 mph17.7 kmh 30.07 in1018.3 mb 0.00 in0.0 mm 0.00 in0.0 mm 0.00 in0.0 mm
11:05 AM 89.9°F32.2°C 68.1°F20.1°C 49% 4.5 mph S7.2 kmh S 13.0 mph20.9 kmh 30.07 in1018.3 mb 0.00 in0.0 mm 0.00 in0.0 mm 0.00 in0.0 mm
11:10 AM 89.2°F31.8°C 68.1°F20.1°C 50% 3.8 mph S6.1 kmh S 13.0 mph20.9 kmh 30.06 in1017.9 mb 0.00 in0.0 mm 0.00 in0.0 mm 0.00 in0.0 mm
11:15 AM 89.7°F32.1°C 69.1°F20.6°C 51% 4.5 mph SW7.2 kmh SW 11.0 mph17.7 kmh 30.06 in1017.9 mb 0.00 in0.0 mm 0.00 in0.0 mm 0.00 in0.0 mm
11:20 AM 90.1°F32.3°C 68.3°F20.2°C 49% 4.6 mph SSE7.4 kmh SSE 11.0 mph17.7 kmh 30.06 in1017.9 mb 0.00 in0.0 mm 0.00 in0.0 mm 0.00 in0.0 mm
11:25 AM 89.9°F32.2°C 68.1°F20.1°C 49% 5.9 mph SSE9.5 kmh SSE 13.0 mph20.9 kmh 30.06 in1017.9 mb 0.00 in0.0 mm 0.00 in0.0 mm 0.00 in0.0 mm
11:30 AM 90.4°F32.4°C 69.2°F20.7°C 50% 5.0 mph S8.0 kmh S 14.0 mph22.5 kmh 30.05 in1017.6 mb 0.00 in0.0 mm 0.00 in0.0 mm 0.00 in0.0 mm
11:35 AM 90.5°F32.5°C 67.5°F19.7°C 47% 7.1 mph SSE11.4 kmh SSE 14.0 mph22.5 kmh 30.05 in1017.6 mb 0.00 in0.0 mm 0.00 in0.0 mm 0.00 in0.0 mm
11:40 AM 90.4°F32.4°C 67.4°F19.7°C 47% 5.4 mph S8.7 kmh S 14.0 mph22.5 kmh 30.05 in1017.6 mb 0.00 in0.0 mm 0.00 in0.0 mm 0.00 in0.0 mm
11:45 AM 90.6°F32.6°C 66.9°F19.4°C 46% 5.7 mph S9.2 kmh S 13.0 mph20.9 kmh 30.05 in1017.6 mb 0.00 in0.0 mm 0.00 in0.0 mm 0.00 in0.0 mm
11:50 AM 91.1°F32.8°C 66.1°F18.9°C 44% 7.9 mph SSE12.7 kmh SSE 15.0 mph24.1 kmh 30.05 in1017.6 mb 0.00 in0.0 mm 0.00 in0.0 mm 0.00 in0.0 mm
11:55 AM 91.6°F33.1°C 66.6°F19.2°C 44% 5.4 mph S8.7 kmh S 15.0 mph24.1 kmh 30.05 in1017.6 mb 0.00 in0.0 mm 0.00 in0.0 mm 0.00 in0.0 mm
12:00 PM 91.2°F32.9°C 65.5°F18.6°C 43% 6.8 mph SSE10.9 kmh SSE 12.0 mph19.3 kmh 30.05 in1017.6 mb 0.00 in0.0 mm 0.00 in0.0 mm 0.00 in0.0 mm
12:05 PM 91.2°F32.9°C 66.8°F19.3°C 45% 6.1 mph SSE9.8 kmh SSE 12.0 mph19.3 kmh 30.05 in1017.6 mb 0.00 in0.0 mm 0.00 in0.0 mm 0.00 in0.0 mm
12:10 PM 91.2°F32.9°C 68.1°F20.1°C 47% 5.9 mph SSE9.5 kmh SSE 11.0 mph17.7 kmh 30.04 in1017.3 mb 0.00 in0.0 mm 0.00 in0.0 mm 0.00 in0.0 mm
12:15 PM 91.9°F33.3°C 65.5°F18.6°C 42% 4.7 mph S7.6 kmh S 11.0 mph17.7 kmh 30.04 in1017.3 mb 0.00 in0.0 mm 0.00 in0.0 mm 0.00 in0.0 mm
12:20 PM 91.5°F33.1°C 65.8°F18.8°C 43% 6.3 mph SSE10.1 kmh SSE 15.0 mph24.1 kmh 30.04 in1017.3 mb 0.00 in0.0 mm 0.00 in0.0 mm 0.00 in0.0 mm
12:25 PM 91.6°F33.1°C 65.9°F18.8°C 43% 8.1 mph SSE13.0 kmh SSE 15.0 mph24.1 kmh 30.04 in1017.3 mb 0.00 in0.0 mm 0.00 in0.0 mm 0.00 in0.0 mm
12:30 PM 91.5°F33.1°C 65.8°F18.8°C 43% 7.2 mph SSE11.6 kmh SSE 18.0 mph29.0 kmh 30.04 in1017.3 mb 0.00 in0.0 mm 0.00 in0.0 mm 0.00 in0.0 mm
12:35 PM 92.6°F33.7°C 67.5°F19.7°C 44% 4.9 mph S7.9 kmh S 18.0 mph29.0 kmh 30.04 in1017.3 mb 0.00 in0.0 mm 0.00 in0.0 mm 0.00 in0.0 mm
12:40 PM 92.3°F33.5°C 65.8°F18.8°C 42% 4.5 mph SSW7.2 kmh SSW 11.0 mph17.7 kmh 30.04 in1017.3 mb 0.00 in0.0 mm 0.00 in0.0 mm 0.00 in0.0 mm
12:45 PM 92.5°F33.6°C 63.9°F17.7°C 39% 6.2 mph SSE10.0 kmh SSE 14.0 mph22.5 kmh 30.03 in1016.9 mb 0.00 in0.0 mm 0.00 in0.0 mm 0.00 in0.0 mm
12:50 PM 92.8°F33.8°C 66.3°F19.1°C 42% 4.8 mph S7.7 kmh S 14.0 mph22.5 kmh 30.03 in1016.9 mb 0.00 in0.0 mm 0.00 in0.0 mm 0.00 in0.0 mm
12:55 PM 92.1°F33.4°C 67.7°F19.8°C 45% 8.5 mph SSE13.7 kmh SSE 17.0 mph27.4 kmh 30.03 in1016.9 mb 0.00 in0.0 mm 0.00 in0.0 mm 0.00 in0.0 mm
01:00 PM 91.6°F33.1°C 68.5°F20.3°C 47% 6.9 mph SE11.1 kmh SE 17.0 mph27.4 kmh 30.03 in1016.9 mb 0.00 in0.0 mm 0.00 in0.0 mm 0.00 in0.0 mm
01:05 PM 90.6°F32.6°C 66.3°F19.1°C 45% 8.7 mph SE14.0 kmh SE 16.0 mph25.7 kmh 30.02 in1016.6 mb 0.00 in0.0 mm 0.00 in0.0 mm 0.00 in0.0 mm
01:10 PM 91.3°F32.9°C 68.2°F20.1°C 47% 6.6 mph SE10.6 kmh SE 16.0 mph25.7 kmh 30.02 in1016.6 mb 0.00 in0.0 mm 0.00 in0.0 mm 0.00 in0.0 mm
01:15 PM 91.6°F33.1°C 67.8°F19.9°C 46% 7.7 mph SE12.4 kmh SE 15.0 mph24.1 kmh 30.02 in1016.6 mb 0.00 in0.0 mm 0.00 in0.0 mm 0.00 in0.0 mm
01:20 PM 92.2°F33.4°C 67.7°F19.8°C 45% 4.9 mph SSE7.9 kmh SSE 15.0 mph24.1 kmh 30.02 in1016.6 mb 0.00 in0.0 mm 0.00 in0.0 mm 0.00 in0.0 mm
01:25 PM 91.5°F33.1°C 67.1°F19.5°C 45% 3.4 mph S5.5 kmh S 11.0 mph17.7 kmh 30.02 in1016.6 mb 0.00 in0.0 mm 0.00 in0.0 mm 0.00 in0.0 mm
01:30 PM 91.0°F32.8°C 67.9°F19.9°C 47% 7.5 mph SSE12.1 kmh SSE 14.0 mph22.5 kmh 30.02 in1016.6 mb 0.00 in0.0 mm 0.00 in0.0 mm 0.00 in0.0 mm
01:35 PM 91.3°F32.9°C 66.3°F19.1°C 44% 5.9 mph SSE9.5 kmh SSE 14.0 mph22.5 kmh 30.01 in1016.3 mb 0.00 in0.0 mm 0.00 in0.0 mm 0.00 in0.0 mm
01:40 PM 91.7°F33.2°C 66.6°F19.2°C 44% 4.8 mph SSE7.7 kmh SSE 12.0 mph19.3 kmh 30.01 in1016.3 mb 0.00 in0.0 mm 0.00 in0.0 mm 0.00 in0.0 mm
01:45 PM 91.3°F32.9°C 67.6°F19.8°C 46% 5.6 mph SSE9.0 kmh SSE 12.0 mph19.3 kmh 30.01 in1016.3 mb 0.00 in0.0 mm 0.00 in0.0 mm 0.00 in0.0 mm
01:50 PM 91.9°F33.3°C 65.5°F18.6°C 42% 8.1 mph SE13.0 kmh SE 16.0 mph25.7 kmh 30.01 in1016.3 mb 0.00 in0.0 mm 0.00 in0.0 mm 0.00 in0.0 mm
01:55 PM 91.6°F33.1°C 66.6°F19.2°C 44% 7.8 mph SSE12.6 kmh SSE 16.0 mph25.7 kmh 30.01 in1016.3 mb 0.00 in0.0 mm 0.00 in0.0 mm 0.00 in0.0 mm
02:00 PM 92.1°F33.4°C 67.7°F19.8°C 45% 6.8 mph SSE10.9 kmh SSE 14.0 mph22.5 kmh 30.00 in1015.9 mb 0.00 in0.0 mm 0.00 in0.0 mm 0.00 in0.0 mm
02:05 PM 92.8°F33.8°C 65.6°F18.7°C 41% 6.3 mph SSE10.1 kmh SSE 14.0 mph22.5 kmh 30.00 in1015.9 mb 0.00 in0.0 mm 0.00 in0.0 mm 0.00 in0.0 mm
02:10 PM 93.4°F34.1°C 65.4°F18.6°C 40% 3.3 mph S5.3 kmh S 14.0 mph22.5 kmh 30.00 in1015.9 mb 0.00 in0.0 mm 0.00 in0.0 mm 0.00 in0.0 mm
02:15 PM 92.9°F33.8°C 66.4°F19.1°C 42% 6.1 mph SSE9.8 kmh SSE 13.0 mph20.9 kmh 30.00 in1015.9 mb 0.00 in0.0 mm 0.00 in0.0 mm 0.00 in0.0 mm
02:20 PM 92.8°F33.8°C 66.3°F19.1°C 42% 6.2 mph SE10.0 kmh SE 13.0 mph20.9 kmh 30.00 in1015.9 mb 0.00 in0.0 mm 0.00 in0.0 mm 0.00 in0.0 mm
02:25 PM 92.4°F33.6°C 65.2°F18.4°C 41% 8.2 mph SE13.2 kmh SE 15.0 mph24.1 kmh 30.00 in1015.9 mb 0.00 in0.0 mm 0.00 in0.0 mm 0.00 in0.0 mm
02:30 PM 92.9°F33.8°C 66.4°F19.1°C 42% 6.0 mph SE9.7 kmh SE 15.0 mph24.1 kmh 29.99 in1015.6 mb 0.00 in0.0 mm 0.00 in0.0 mm 0.00 in0.0 mm
02:35 PM 92.7°F33.7°C 66.2°F19.0°C 42% 7.3 mph SE11.7 kmh SE 13.0 mph20.9 kmh 29.99 in1015.6 mb 0.00 in0.0 mm 0.00 in0.0 mm 0.00 in0.0 mm
02:40 PM 92.4°F33.6°C 65.9°F18.8°C 42% 7.1 mph SE11.4 kmh SE 14.0 mph22.5 kmh 29.99 in1015.6 mb 0.00 in0.0 mm 0.00 in0.0 mm 0.00 in0.0 mm
02:45 PM 92.5°F33.6°C 66.0°F18.9°C 42% 7.6 mph SSE12.2 kmh SSE 14.0 mph22.5 kmh 29.99 in1015.6 mb 0.00 in0.0 mm 0.00 in0.0 mm 0.00 in0.0 mm
02:50 PM 92.0°F33.3°C 66.3°F19.1°C 43% 5.9 mph SE9.5 kmh SE 13.0 mph20.9 kmh 29.99 in1015.6 mb 0.00 in0.0 mm 0.00 in0.0 mm 0.00 in0.0 mm
02:55 PM 92.4°F33.6°C 65.9°F18.8°C 42% 7.2 mph SE11.6 kmh SE 13.0 mph20.9 kmh 29.98 in1015.2 mb 0.00 in0.0 mm 0.00 in0.0 mm 0.00 in0.0 mm
03:00 PM 92.9°F33.8°C 66.4°F19.1°C 42% 5.9 mph SSE9.5 kmh SSE 13.0 mph20.9 kmh 29.98 in1015.2 mb 0.00 in0.0 mm 0.00 in0.0 mm 0.00 in0.0 mm
03:05 PM 92.8°F33.8°C 65.6°F18.7°C 41% 8.6 mph SE13.8 kmh SE 15.0 mph24.1 kmh 29.98 in1015.2 mb 0.00 in0.0 mm 0.00 in0.0 mm 0.00 in0.0 mm
03:10 PM 92.4°F33.6°C 65.9°F18.8°C 42% 6.6 mph SE10.6 kmh SE 15.0 mph24.1 kmh 29.98 in1015.2 mb 0.00 in0.0 mm 0.00 in0.0 mm 0.00 in0.0 mm
03:15 PM 92.6°F33.7°C 66.8°F19.3°C 43% 6.9 mph SSE11.1 kmh SSE 15.0 mph24.1 kmh 29.97 in1014.9 mb 0.00 in0.0 mm 0.00 in0.0 mm 0.00 in0.0 mm
03:20 PM 92.4°F33.6°C 66.6°F19.2°C 43% 7.9 mph SSE12.7 kmh SSE 15.0 mph24.1 kmh 29.97 in1014.9 mb 0.00 in0.0 mm 0.00 in0.0 mm 0.00 in0.0 mm
03:25 PM 92.7°F33.7°C 66.9°F19.4°C 43% 5.7 mph SSE9.2 kmh SSE 14.0 mph22.5 kmh 29.97 in1014.9 mb 0.00 in0.0 mm 0.00 in0.0 mm 0.00 in0.0 mm
03:30 PM 92.7°F33.7°C 66.2°F19.0°C 42% 7.4 mph SE11.9 kmh SE 15.0 mph24.1 kmh 29.97 in1014.9 mb 0.00 in0.0 mm 0.00 in0.0 mm 0.00 in0.0 mm
03:35 PM 92.5°F33.6°C 66.0°F18.9°C 42% 7.1 mph SSE11.4 kmh SSE 15.0 mph24.1 kmh 29.97 in1014.9 mb 0.00 in0.0 mm 0.00 in0.0 mm 0.00 in0.0 mm
03:40 PM 92.7°F33.7°C 65.5°F18.6°C 41% 6.3 mph SE10.1 kmh SE 15.0 mph24.1 kmh 29.97 in1014.9 mb 0.00 in0.0 mm 0.00 in0.0 mm 0.00 in0.0 mm
03:45 PM 93.1°F33.9°C 65.9°F18.8°C 41% 6.0 mph SE9.7 kmh SE 13.0 mph20.9 kmh 29.96 in1014.6 mb 0.00 in0.0 mm 0.00 in0.0 mm 0.00 in0.0 mm
03:50 PM 92.9°F33.8°C 65.7°F18.7°C 41% 8.0 mph SE12.9 kmh SE 13.0 mph20.9 kmh 29.96 in1014.6 mb 0.00 in0.0 mm 0.00 in0.0 mm 0.00 in0.0 mm
03:55 PM 92.4°F33.6°C 66.6°F19.2°C 43% 6.9 mph SE11.1 kmh SE 15.0 mph24.1 kmh 29.96 in1014.6 mb 0.00 in0.0 mm 0.00 in0.0 mm 0.00 in0.0 mm
04:00 PM 92.6°F33.7°C 66.1°F18.9°C 42% 8.0 mph SE12.9 kmh SE 15.0 mph24.1 kmh 29.96 in1014.6 mb 0.00 in0.0 mm 0.00 in0.0 mm 0.00 in0.0 mm
04:05 PM 92.9°F33.8°C 65.7°F18.7°C 41% 7.6 mph SSE12.2 kmh SSE 15.0 mph24.1 kmh 29.96 in1014.6 mb 0.00 in0.0 mm 0.00 in0.0 mm 0.00 in0.0 mm
04:10 PM 92.4°F33.6°C 65.2°F18.4°C 41% 6.4 mph SE10.3 kmh SE 13.0 mph20.9 kmh 29.95 in1014.2 mb 0.00 in0.0 mm 0.00 in0.0 mm 0.00 in0.0 mm
04:15 PM 92.2°F33.4°C 65.8°F18.8°C 42% 7.2 mph SE11.6 kmh SE 13.0 mph20.9 kmh 29.95 in1014.2 mb 0.00 in0.0 mm 0.00 in0.0 mm 0.00 in0.0 mm
04:20 PM 93.0°F33.9°C 65.8°F18.8°C 41% 7.0 mph SE11.3 kmh SE 13.0 mph20.9 kmh 29.95 in1014.2 mb 0.00 in0.0 mm 0.00 in0.0 mm 0.00 in0.0 mm
04:25 PM 92.9°F33.8°C 65.7°F18.7°C 41% 6.6 mph SE10.6 kmh SE 13.0 mph20.9 kmh 29.95 in1014.2 mb 0.00 in0.0 mm 0.00 in0.0 mm 0.00 in0.0 mm
04:30 PM 92.5°F33.6°C 66.0°F18.9°C 42% 5.8 mph SE9.3 kmh SE 12.0 mph19.3 kmh 29.95 in1014.2 mb 0.00 in0.0 mm 0.00 in0.0 mm 0.00 in0.0 mm
04:35 PM 92.9°F33.8°C 65.7°F18.7°C 41% 5.4 mph SE8.7 kmh SE 11.0 mph17.7 kmh 29.95 in1014.2 mb 0.00 in0.0 mm 0.00 in0.0 mm 0.00 in0.0 mm
04:40 PM 93.0°F33.9°C 65.8°F18.8°C 41% 5.4 mph SSE8.7 kmh SSE 12.0 mph19.3 kmh 29.94 in1013.9 mb 0.00 in0.0 mm 0.00 in0.0 mm 0.00 in0.0 mm
04:45 PM 92.2°F33.4°C 65.1°F18.4°C 41% 6.4 mph SE10.3 kmh SE 14.0 mph22.5 kmh 29.95 in1014.2 mb 0.00 in0.0 mm 0.00 in0.0 mm 0.00 in0.0 mm
04:50 PM 92.0°F33.3°C 65.6°F18.7°C 42% 6.1 mph SSE9.8 kmh SSE 14.0 mph22.5 kmh 29.95 in1014.2 mb 0.00 in0.0 mm 0.00 in0.0 mm 0.00 in0.0 mm
04:55 PM 92.0°F33.3°C 65.6°F18.7°C 42% 7.0 mph SSE11.3 kmh SSE 13.0 mph20.9 kmh 29.95 in1014.2 mb 0.00 in0.0 mm 0.00 in0.0 mm 0.00 in0.0 mm
05:00 PM 92.4°F33.6°C 65.9°F18.8°C 42% 6.5 mph SE10.5 kmh SE 14.0 mph22.5 kmh 29.95 in1014.2 mb 0.00 in0.0 mm 0.00 in0.0 mm 0.00 in0.0 mm
05:05 PM 93.0°F33.9°C 65.8°F18.8°C 41% 5.4 mph SE8.7 kmh SE 14.0 mph22.5 kmh 29.94 in1013.9 mb 0.00 in0.0 mm 0.00 in0.0 mm 0.00 in0.0 mm
05:10 PM 93.2°F34.0°C 65.9°F18.8°C 41% 6.6 mph SE10.6 kmh SE 16.0 mph25.7 kmh 29.94 in1013.9 mb 0.00 in0.0 mm 0.00 in0.0 mm 0.00 in0.0 mm
05:15 PM 93.3°F34.1°C 66.0°F18.9°C 41% 5.0 mph SE8.0 kmh SE 13.0 mph20.9 kmh 29.94 in1013.9 mb 0.00 in0.0 mm 0.00 in0.0 mm 0.00 in0.0 mm
05:20 PM 93.0°F33.9°C 65.8°F18.8°C 41% 6.0 mph SSE9.7 kmh SSE 12.0 mph19.3 kmh 29.94 in1013.9 mb 0.00 in0.0 mm 0.00 in0.0 mm 0.00 in0.0 mm
05:25 PM 92.7°F33.7°C 65.5°F18.6°C 41% 6.1 mph SE9.8 kmh SE 12.0 mph19.3 kmh 29.94 in1013.9 mb 0.00 in0.0 mm 0.00 in0.0 mm 0.00 in0.0 mm
05:30 PM 92.2°F33.4°C 65.8°F18.8°C 42% 6.3 mph SSE10.1 kmh SSE 12.0 mph19.3 kmh 29.94 in1013.9 mb 0.00 in0.0 mm 0.00 in0.0 mm 0.00 in0.0 mm
05:35 PM 92.0°F33.3°C 66.3°F19.1°C 43% 5.4 mph SSE8.7 kmh SSE 12.0 mph19.3 kmh 29.94 in1013.9 mb 0.00 in0.0 mm 0.00 in0.0 mm 0.00 in0.0 mm
05:40 PM 92.2°F33.4°C 65.8°F18.8°C 42% 5.7 mph SSE9.2 kmh SSE 11.0 mph17.7 kmh 29.94 in1013.9 mb 0.00 in0.0 mm 0.00 in0.0 mm 0.00 in0.0 mm
05:45 PM 92.4°F33.6°C 65.9°F18.8°C 42% 6.9 mph SE11.1 kmh SE 14.0 mph22.5 kmh 29.93 in1013.5 mb 0.00 in0.0 mm 0.00 in0.0 mm 0.00 in0.0 mm
05:50 PM 92.5°F33.6°C 66.0°F18.9°C 42% 6.2 mph SE10.0 kmh SE 14.0 mph22.5 kmh 29.93 in1013.5 mb 0.00 in0.0 mm 0.00 in0.0 mm 0.00 in0.0 mm
05:55 PM 92.5°F33.6°C 66.0°F18.9°C 42% 5.9 mph SE9.5 kmh SE 11.0 mph17.7 kmh 29.93 in1013.5 mb 0.00 in0.0 mm 0.00 in0.0 mm 0.00 in0.0 mm
06:00 PM 92.3°F33.5°C 65.8°F18.8°C 42% 7.0 mph SSE11.3 kmh SSE 13.0 mph20.9 kmh 29.93 in1013.5 mb 0.00 in0.0 mm 0.00 in0.0 mm 0.00 in0.0 mm
06:05 PM 92.1°F33.4°C 66.3°F19.1°C 43% 6.1 mph SSE9.8 kmh SSE 13.0 mph20.9 kmh 29.94 in1013.9 mb 0.00 in0.0 mm 0.00 in0.0 mm 0.00 in0.0 mm
06:10 PM 91.9°F33.3°C 66.2°F19.0°C 43% 7.4 mph SSE11.9 kmh SSE 14.0 mph22.5 kmh 29.93 in1013.5 mb 0.00 in0.0 mm 0.00 in0.0 mm 0.00 in0.0 mm
06:15 PM 91.7°F33.2°C 66.6°F19.2°C 44% 4.3 mph SSE6.9 kmh SSE 14.0 mph22.5 kmh 29.93 in1013.5 mb 0.00 in0.0 mm 0.00 in0.0 mm 0.00 in0.0 mm
06:20 PM 91.6°F33.1°C 66.6°F19.2°C 44% 5.2 mph SSE8.4 kmh SSE 11.0 mph17.7 kmh 29.93 in1013.5 mb 0.00 in0.0 mm 0.00 in0.0 mm 0.00 in0.0 mm
06:25 PM 91.4°F33.0°C 66.4°F19.1°C 44% 5.4 mph SSE8.7 kmh SSE 11.0 mph17.7 kmh 29.93 in1013.5 mb 0.00 in0.0 mm 0.00 in0.0 mm 0.00 in0.0 mm
06:30 PM 91.2°F32.9°C 66.2°F19.0°C 44% 5.3 mph SSE8.5 kmh SSE 11.0 mph17.7 kmh 29.93 in1013.5 mb 0.00 in0.0 mm 0.00 in0.0 mm 0.00 in0.0 mm
06:35 PM 91.1°F32.8°C 66.8°F19.3°C 45% 4.6 mph SSE7.4 kmh SSE 9.0 mph14.5 kmh 29.93 in1013.5 mb 0.00 in0.0 mm 0.00 in0.0 mm 0.00 in0.0 mm
06:40 PM 90.9°F32.7°C 66.6°F19.2°C 45% 5.5 mph SSE8.9 kmh SSE 10.0 mph16.1 kmh 29.93 in1013.5 mb 0.00 in0.0 mm 0.00 in0.0 mm 0.00 in0.0 mm
06:45 PM 90.6°F32.6°C 66.9°F19.4°C 46% 5.0 mph SSE8.0 kmh SSE 11.0 mph17.7 kmh 29.93 in1013.5 mb 0.00 in0.0 mm 0.00 in0.0 mm 0.00 in0.0 mm
06:50 PM 90.4°F32.4°C 66.8°F19.3°C 46% 4.5 mph SSE7.2 kmh SSE 11.0 mph17.7 kmh 29.94 in1013.9 mb 0.00 in0.0 mm 0.00 in0.0 mm 0.00 in0.0 mm
06:55 PM 90.3°F32.4°C 67.3°F19.6°C 47% 5.2 mph SSE8.4 kmh SSE 9.0 mph14.5 kmh 29.94 in1013.9 mb 0.00 in0.0 mm 0.00 in0.0 mm 0.00 in0.0 mm
07:00 PM 89.9°F32.2°C 67.5°F19.7°C 48% 4.9 mph SSE7.9 kmh SSE 10.0 mph16.1 kmh 29.93 in1013.5 mb 0.00 in0.0 mm 0.00 in0.0 mm 0.00 in0.0 mm
07:05 PM 89.5°F31.9°C 67.8°F19.9°C 49% 3.7 mph SSE6.0 kmh SSE 10.0 mph16.1 kmh 29.94 in1013.9 mb 0.00 in0.0 mm 0.00 in0.0 mm 0.00 in0.0 mm
07:10 PM 89.3°F31.8°C 67.0°F19.4°C 48% 4.8 mph SSE7.7 kmh SSE 10.0 mph16.1 kmh 29.94 in1013.9 mb 0.00 in0.0 mm 0.00 in0.0 mm 0.00 in0.0 mm
07:15 PM 89.2°F31.8°C 66.9°F19.4°C 48% 4.8 mph SSE7.7 kmh SSE 10.0 mph16.1 kmh 29.94 in1013.9 mb 0.00 in0.0 mm 0.00 in0.0 mm 0.00 in0.0 mm
07:20 PM 89.2°F31.8°C 66.9°F19.4°C 48% 5.2 mph SSE8.4 kmh SSE 11.0 mph17.7 kmh 29.94 in1013.9 mb 0.00 in0.0 mm 0.00 in0.0 mm 0.00 in0.0 mm
07:25 PM 89.1°F31.7°C 66.8°F19.3°C 48% 5.4 mph SE8.7 kmh SE 11.0 mph17.7 kmh 29.94 in1013.9 mb 0.00 in0.0 mm 0.00 in0.0 mm 0.00 in0.0 mm
07:30 PM 89.0°F31.7°C 66.7°F19.3°C 48% 4.8 mph SSE7.7 kmh SSE 11.0 mph17.7 kmh 29.94 in1013.9 mb 0.00 in0.0 mm 0.00 in0.0 mm 0.00 in0.0 mm
07:35 PM 88.7°F31.5°C 67.0°F19.4°C 49% 4.9 mph SSE7.9 kmh SSE 8.0 mph12.9 kmh 29.94 in1013.9 mb 0.00 in0.0 mm 0.00 in0.0 mm 0.00 in0.0 mm
07:40 PM 88.6°F31.4°C 67.0°F19.4°C 49% 5.0 mph SSE8.0 kmh SSE 11.0 mph17.7 kmh 29.94 in1013.9 mb 0.00 in0.0 mm 0.00 in0.0 mm 0.00 in0.0 mm
07:45 PM 88.4°F31.3°C 67.4°F19.7°C 50% 4.3 mph SE6.9 kmh SE 11.0 mph17.7 kmh 29.94 in1013.9 mb 0.00 in0.0 mm 0.00 in0.0 mm 0.00 in0.0 mm
07:50 PM 88.3°F31.3°C 67.3°F19.6°C 50% 4.5 mph SSE7.2 kmh SSE 9.0 mph14.5 kmh 29.94 in1013.9 mb 0.00 in0.0 mm 0.00 in0.0 mm 0.00 in0.0 mm
07:55 PM 88.1°F31.2°C 67.1°F19.5°C 50% 3.3 mph SE5.3 kmh SE 9.0 mph14.5 kmh 29.95 in1014.2 mb 0.00 in0.0 mm 0.00 in0.0 mm 0.00 in0.0 mm
08:00 PM 87.9°F31.1°C 66.9°F19.4°C 50% 5.5 mph SSE8.9 kmh SSE 9.0 mph14.5 kmh 29.95 in1014.2 mb 0.00 in0.0 mm 0.00 in0.0 mm 0.00 in0.0 mm
08:05 PM 87.9°F31.1°C 67.5°F19.7°C 51% 5.4 mph SSE8.7 kmh SSE 9.0 mph14.5 kmh 29.95 in1014.2 mb 0.00 in0.0 mm 0.00 in0.0 mm 0.00 in0.0 mm
08:10 PM 87.7°F30.9°C 67.3°F19.6°C 51% 3.5 mph SSE5.6 kmh SSE 9.0 mph14.5 kmh 29.95 in1014.2 mb 0.00 in0.0 mm 0.00 in0.0 mm 0.00 in0.0 mm
08:15 PM 87.5°F30.8°C 67.1°F19.5°C 51% 4.6 mph SE7.4 kmh SE 9.0 mph14.5 kmh 29.95 in1014.2 mb 0.00 in0.0 mm 0.00 in0.0 mm 0.00 in0.0 mm
08:20 PM 87.5°F30.8°C 67.7°F19.8°C 52% 3.9 mph SSE6.3 kmh SSE 9.0 mph14.5 kmh 29.95 in1014.2 mb 0.00 in0.0 mm 0.00 in0.0 mm 0.00 in0.0 mm
08:25 PM 87.4°F30.8°C 67.6°F19.8°C 52% 4.4 mph SSE7.1 kmh SSE 8.0 mph12.9 kmh 29.95 in1014.2 mb 0.00 in0.0 mm 0.00 in0.0 mm 0.00 in0.0 mm
08:30 PM 87.3°F30.7°C 68.0°F20.0°C 53% 5.0 mph SSE8.0 kmh SSE 10.0 mph16.1 kmh 29.95 in1014.2 mb 0.00 in0.0 mm 0.00 in0.0 mm 0.00 in0.0 mm
08:35 PM 87.1°F30.6°C 67.9°F19.9°C 53% 4.0 mph SSE6.4 kmh SSE 10.0 mph16.1 kmh 29.95 in1014.2 mb 0.00 in0.0 mm 0.00 in0.0 mm 0.00 in0.0 mm
08:40 PM 86.9°F30.5°C 68.2°F20.1°C 54% 4.2 mph SSE6.8 kmh SSE 9.0 mph14.5 kmh 29.95 in1014.2 mb 0.00 in0.0 mm 0.00 in0.0 mm 0.00 in0.0 mm
08:45 PM 86.8°F30.4°C 68.7°F20.4°C 55% 5.8 mph SSE9.3 kmh SSE 14.0 mph22.5 kmh 29.96 in1014.6 mb 0.00 in0.0 mm 0.00 in0.0 mm 0.00 in0.0 mm
08:50 PM 86.7°F30.4°C 68.6°F20.3°C 55% 5.9 mph SSE9.5 kmh SSE 14.0 mph22.5 kmh 29.96 in1014.6 mb 0.00 in0.0 mm 0.00 in0.0 mm 0.00 in0.0 mm
08:55 PM 86.5°F30.3°C 68.4°F20.2°C 55% 6.1 mph SSE9.8 kmh SSE 11.0 mph17.7 kmh 29.96 in1014.6 mb 0.00 in0.0 mm 0.00 in0.0 mm 0.00 in0.0 mm
09:00 PM 86.3°F30.2°C 68.2°F20.1°C 55% 5.9 mph SSE9.5 kmh SSE 12.0 mph19.3 kmh 29.96 in1014.6 mb 0.00 in0.0 mm 0.00 in0.0 mm 0.00 in0.0 mm
09:05 PM 86.1°F30.1°C 68.5°F20.3°C 56% 6.0 mph SSE9.7 kmh SSE 12.0 mph19.3 kmh 29.96 in1014.6 mb 0.00 in0.0 mm 0.00 in0.0 mm 0.00 in0.0 mm
09:10 PM 85.9°F29.9°C 68.4°F20.2°C 56% 5.9 mph SSE9.5 kmh SSE 12.0 mph19.3 kmh 29.96 in1014.6 mb 0.00 in0.0 mm 0.00 in0.0 mm 0.00 in0.0 mm
09:15 PM 85.7°F29.8°C 68.2°F20.1°C 56% 4.7 mph SSE7.6 kmh SSE 10.0 mph16.1 kmh 29.96 in1014.6 mb 0.00 in0.0 mm 0.00 in0.0 mm 0.00 in0.0 mm
09:20 PM 85.5°F29.7°C 68.0°F20.0°C 56% 5.0 mph SSE8.0 kmh SSE 12.0 mph19.3 kmh 29.97 in1014.9 mb 0.00 in0.0 mm 0.00 in0.0 mm 0.00 in0.0 mm
09:25 PM 85.4°F29.7°C 67.9°F19.9°C 56% 6.4 mph SSE10.3 kmh SSE 12.0 mph19.3 kmh 29.97 in1014.9 mb 0.00 in0.0 mm 0.00 in0.0 mm 0.00 in0.0 mm
09:30 PM 85.3°F29.6°C 67.8°F19.9°C 56% 6.3 mph SSE10.1 kmh SSE 11.0 mph17.7 kmh 29.97 in1014.9 mb 0.00 in0.0 mm 0.00 in0.0 mm 0.00 in0.0 mm
09:35 PM 85.1°F29.5°C 67.6°F19.8°C 56% 6.3 mph SSE10.1 kmh SSE 12.0 mph19.3 kmh 29.97 in1014.9 mb 0.00 in0.0 mm 0.00 in0.0 mm 0.00 in0.0 mm
09:40 PM 84.8°F29.3°C 67.8°F19.9°C 57% 4.4 mph SSE7.1 kmh SSE 12.0 mph19.3 kmh 29.97 in1014.9 mb 0.00 in0.0 mm 0.00 in0.0 mm 0.00 in0.0 mm
09:45 PM 84.7°F29.3°C 67.8°F19.9°C 57% 5.8 mph SSE9.3 kmh SSE 13.0 mph20.9 kmh 29.98 in1015.2 mb 0.00 in0.0 mm 0.00 in0.0 mm 0.00 in0.0 mm
09:50 PM 84.4°F29.1°C 68.0°F20.0°C 58% 4.5 mph SSE7.2 kmh SSE 13.0 mph20.9 kmh 29.98 in1015.2 mb 0.00 in0.0 mm 0.00 in0.0 mm 0.00 in0.0 mm
09:55 PM 84.3°F29.1°C 67.9°F19.9°C 58% 4.7 mph SSE7.6 kmh SSE 12.0 mph19.3 kmh 29.97 in1014.9 mb 0.00 in0.0 mm 0.00 in0.0 mm 0.00 in0.0 mm
10:00 PM 84.1°F28.9°C 68.2°F20.1°C 59% 6.2 mph SSE10.0 kmh SSE 14.0 mph22.5 kmh 29.98 in1015.2 mb 0.00 in0.0 mm 0.00 in0.0 mm 0.00 in0.0 mm
10:05 PM 83.9°F28.8°C 68.0°F20.0°C 59% 7.2 mph SSE11.6 kmh SSE 14.0 mph22.5 kmh 29.98 in1015.2 mb 0.00 in0.0 mm 0.00 in0.0 mm 0.00 in0.0 mm
10:10 PM 83.6°F28.7°C 67.7°F19.8°C 59% 6.0 mph SSE9.7 kmh SSE 13.0 mph20.9 kmh 29.98 in1015.2 mb 0.00 in0.0 mm 0.00 in0.0 mm 0.00 in0.0 mm
10:15 PM 83.4°F28.6°C 68.0°F20.0°C 60% 5.0 mph SSE8.0 kmh SSE 12.0 mph19.3 kmh 29.98 in1015.2 mb 0.00 in0.0 mm 0.00 in0.0 mm 0.00 in0.0 mm
10:20 PM 83.3°F28.5°C 67.9°F19.9°C 60% 5.0 mph SSE8.0 kmh SSE 10.0 mph16.1 kmh 29.98 in1015.2 mb 0.00 in0.0 mm 0.00 in0.0 mm 0.00 in0.0 mm
10:25 PM 83.1°F28.4°C 67.7°F19.8°C 60% 6.0 mph SSE9.7 kmh SSE 14.0 mph22.5 kmh 29.98 in1015.2 mb 0.00 in0.0 mm 0.00 in0.0 mm 0.00 in0.0 mm
10:30 PM 82.9°F28.3°C 68.0°F20.0°C 61% 4.9 mph SSE7.9 kmh SSE 14.0 mph22.5 kmh 29.98 in1015.2 mb 0.00 in0.0 mm 0.00 in0.0 mm 0.00 in0.0 mm
10:35 PM 82.9°F28.3°C 68.0°F20.0°C 61% 5.7 mph SSE9.2 kmh SSE 11.0 mph17.7 kmh 29.98 in1015.2 mb 0.00 in0.0 mm 0.00 in0.0 mm 0.00 in0.0 mm
10:40 PM 82.8°F28.2°C 67.9°F19.9°C 61% 5.3 mph SSE8.5 kmh SSE 11.0 mph17.7 kmh 29.98 in1015.2 mb 0.00 in0.0 mm 0.00 in0.0 mm 0.00 in0.0 mm
10:45 PM 82.6°F28.1°C 68.2°F20.1°C 62% 4.7 mph SSE7.6 kmh SSE 9.0 mph14.5 kmh 29.98 in1015.2 mb 0.00 in0.0 mm 0.00 in0.0 mm 0.00 in0.0 mm
10:50 PM 82.5°F28.1°C 68.1°F20.1°C 62% 4.5 mph SSE7.2 kmh SSE 9.0 mph14.5 kmh 29.98 in1015.2 mb 0.00 in0.0 mm 0.00 in0.0 mm 0.00 in0.0 mm
10:55 PM 82.3°F27.9°C 68.0°F20.0°C 62% 5.1 mph SSE8.2 kmh SSE 9.0 mph14.5 kmh 29.98 in1015.2 mb 0.00 in0.0 mm 0.00 in0.0 mm 0.00 in0.0 mm
11:00 PM 82.1°F27.8°C 67.8°F19.9°C 62% 4.8 mph SSE7.7 kmh SSE 9.0 mph14.5 kmh 29.98 in1015.2 mb 0.00 in0.0 mm 0.00 in0.0 mm 0.00 in0.0 mm
11:05 PM 81.9°F27.7°C 68.0°F20.0°C 63% 5.0 mph SSE8.0 kmh SSE 10.0 mph16.1 kmh 29.98 in1015.2 mb 0.00 in0.0 mm 0.00 in0.0 mm 0.00 in0.0 mm
11:10 PM 81.8°F27.7°C 67.9°F19.9°C 63% 5.4 mph SSE8.7 kmh SSE 12.0 mph19.3 kmh 29.98 in1015.2 mb 0.00 in0.0 mm 0.00 in0.0 mm 0.00 in0.0 mm
11:15 PM 81.6°F27.6°C 67.8°F19.9°C 63% 5.7 mph SSE9.2 kmh SSE 12.0 mph19.3 kmh 29.98 in1015.2 mb 0.00 in0.0 mm 0.00 in0.0 mm 0.00 in0.0 mm
11:20 PM 81.4°F27.4°C 68.0°F20.0°C 64% 5.5 mph SSE8.9 kmh SSE 12.0 mph19.3 kmh 29.98 in1015.2 mb 0.00 in0.0 mm 0.00 in0.0 mm 0.00 in0.0 mm
11:25 PM 81.4°F27.4°C 68.0°F20.0°C 64% 6.2 mph SSE10.0 kmh SSE 14.0 mph22.5 kmh 29.98 in1015.2 mb 0.00 in0.0 mm 0.00 in0.0 mm 0.00 in0.0 mm
11:30 PM 81.1°F27.3°C 68.2°F20.1°C 65% 4.1 mph SSE6.6 kmh SSE 14.0 mph22.5 kmh 29.98 in1015.2 mb 0.00 in0.0 mm 0.00 in0.0 mm 0.00 in0.0 mm
11:35 PM 81.0°F27.2°C 68.1°F20.1°C 65% 4.7 mph SSE7.6 kmh SSE 12.0 mph19.3 kmh 29.98 in1015.2 mb 0.00 in0.0 mm 0.00 in0.0 mm 0.00 in0.0 mm
11:40 PM 80.9°F27.2°C 68.0°F20.0°C 65% 3.9 mph SSE6.3 kmh SSE 9.0 mph14.5 kmh 29.98 in1015.2 mb 0.00 in0.0 mm 0.00 in0.0 mm 0.00 in0.0 mm
11:45 PM 80.8°F27.1°C 68.4°F20.2°C 66% 3.8 mph S6.1 kmh S 9.0 mph14.5 kmh 29.98 in1015.2 mb 0.00 in0.0 mm 0.00 in0.0 mm 0.00 in0.0 mm
11:50 PM 80.7°F27.1°C 68.3°F20.2°C 66% 3.9 mph S6.3 kmh S 9.0 mph14.5 kmh 29.98 in1015.2 mb 0.00 in0.0 mm 0.00 in0.0 mm 0.00 in0.0 mm
11:55 PM 80.5°F26.9°C 68.1°F20.1°C 66% 4.5 mph SSE7.2 kmh SSE 9.0 mph14.5 kmh 29.98 in1015.2 mb 0.00 in0.0 mm 0.00 in0.0 mm 0.00 in0.0 mm